Time;durP1;ratioP1;P1;durP2;ratioP2;P2;SDS_P1;SDS_P2;PMS_P1;PMS_P2;Temp;Humidity;BMP_temperature;BMP_pressure;BME280_temperature;BME280_humidity;BME280_pressure;Samples;Min_cycle;Max_cycle;Signal;HPM_P1;HPM_P2
2022/11/23 00:01:22;;;;;;;4.95;1.85;;;5.50;99.90;;;;;;5058925;28;20028;-69
2022/11/23 00:03:55;;;;;;;8.75;1.33;;;5.50;99.90;;;;;;5051517;28;20044;-70
2022/11/23 00:06:21;;;;;;;7.30;1.58;;;5.50;99.90;;;;;;5051416;28;20095;-69
2022/11/23 00:08:48;;;;;;;5.30;1.33;;;5.50;99.90;;;;;;5051785;28;20045;-69
2022/11/23 00:11:14;;;;;;;7.40;1.90;;;5.50;99.90;;;;;;5052229;28;20029;-70
2022/11/23 00:13:40;;;;;;;3.38;1.10;;;5.50;99.90;;;;;;5057771;28;20126;-69
2022/11/23 00:16:15;;;;;;;8.77;1.60;;;5.50;99.90;;;;;;5051239;28;20065;-69
2022/11/23 00:18:42;;;;;;;8.18;1.60;;;5.50;99.90;;;;;;5039663;28;20029;-70
2022/11/23 00:21:11;;;;;;;6.78;1.75;;;5.60;99.90;;;;;;5040118;28;20033;-70
2022/11/23 00:23:36;;;;;;;2.88;1.05;;;5.60;99.90;;;;;;5038399;28;20041;-71
2022/11/23 00:26:03;;;;;;;9.32;1.67;;;5.60;99.90;;;;;;5043088;28;20579;-69
2022/11/23 00:28:29;;;;;;;7.55;1.20;;;5.60;99.90;;;;;;5036890;28;20069;-70
2022/11/23 00:30:55;;;;;;;6.82;1.40;;;5.60;99.90;;;;;;5038159;28;20076;-70
2022/11/23 00:33:21;;;;;;;8.80;1.63;;;5.60;99.90;;;;;;5056991;28;20052;-70
2022/11/23 00:35:46;;;;;;;7.97;1.83;;;5.60;99.90;;;;;;5051223;28;20049;-70
2022/11/23 00:38:12;;;;;;;5.90;1.23;;;5.60;99.90;;;;;;5053195;28;20025;-69
2022/11/23 00:40:38;;;;;;;;;;;5.60;99.90;;;;;;5049408;28;20048;-69
2022/11/23 00:43:03;;;;;;;3.70;1.10;;;5.50;99.90;;;;;;5063892;28;20030;-69
2022/11/23 00:45:29;;;;;;;5.20;1.27;;;5.60;99.90;;;;;;5062937;28;20048;-69
2022/11/23 00:47:55;;;;;;;5.25;1.38;;;5.60;99.90;;;;;;5054801;28;20033;-69
2022/11/23 00:50:20;;;;;;;;;;;5.60;99.90;;;;;;5055294;28;20033;-70
2022/11/23 00:52:46;;;;;;;3.65;1.30;;;5.60;99.90;;;;;;5059237;28;19916;-70
2022/11/23 00:55:12;;;;;;;5.97;1.52;;;5.60;99.90;;;;;;5056203;28;20028;-70
2022/11/23 00:57:37;;;;;;;5.28;1.17;;;5.60;99.90;;;;;;5064292;28;20048;-69
2022/11/23 01:00:05;;;;;;;5.88;1.17;;;5.60;99.90;;;;;;5052957;28;20435;-69
2022/11/23 01:02:34;;;;;;;6.68;1.77;;;5.60;99.90;;;;;;5036526;28;20044;-69
2022/11/23 01:05:00;;;;;;;4.38;1.10;;;5.60;99.90;;;;;;5033179;28;21293;-69
2022/11/23 01:07:29;;;;;;;5.80;1.30;;;5.60;99.90;;;;;;5034268;28;20120;-69
2022/11/23 01:09:55;;;;;;;5.38;1.10;;;5.60;99.90;;;;;;5032964;28;20037;-68
2022/11/23 01:12:21;;;;;;;5.70;1.55;;;5.60;99.90;;;;;;5025772;28;20061;-69
2022/11/23 01:14:46;;;;;;;3.30;0.90;;;5.60;99.90;;;;;;5039153;28;20053;-69
2022/11/23 01:17:12;;;;;;;5.07;1.20;;;5.60;99.90;;;;;;5031860;28;20045;-68
2022/11/23 01:19:37;;;;;;;3.42;1.02;;;5.60;99.90;;;;;;5038126;28;20041;-69
2022/11/23 01:22:03;;;;;;;;;;;5.60;99.90;;;;;;5035499;28;20124;-69
2022/11/23 01:24:29;;;;;;;4.68;1.00;;;5.60;99.90;;;;;;5037926;28;19921;-69
2022/11/23 01:26:54;;;;;;;;;;;5.60;99.90;;;;;;5036220;28;20393;-69
2022/11/23 01:29:21;;;;;;;3.03;0.80;;;5.60;99.90;;;;;;5033022;28;20793;-70
2022/11/23 01:31:47;;;;;;;4.47;1.05;;;5.60;99.90;;;;;;5029034;28;20595;-67
2022/11/23 01:34:14;;;;;;;8.27;1.33;;;5.60;99.90;;;;;;5033991;28;20045;-69
2022/11/23 01:36:41;;;;;;;1.60;0.73;;;5.60;99.90;;;;;;5032147;28;20124;-70
2022/11/23 01:39:06;;;;;;;3.85;0.90;;;5.60;99.90;;;;;;5034155;28;20467;-70
2022/11/23 01:41:36;;;;;;;2.85;0.73;;;5.60;99.90;;;;;;5028218;28;20042;-70
2022/11/23 01:44:26;;;;;;;3.40;0.75;;;5.60;99.90;;;;;;5036580;28;20858;-69
2022/11/23 01:46:52;;;;;;;4.85;0.70;;;5.60;99.90;;;;;;5035245;28;20044;-69
2022/11/23 01:49:18;;;;;;;1.80;0.70;;;5.70;99.90;;;;;;5036368;28;20135;-73
2022/11/23 01:51:45;;;;;;;;;;;5.60;99.90;;;;;;5037357;28;20041;-69
2022/11/23 01:54:16;;;;;;;2.38;0.80;;;5.60;99.90;;;;;;5036943;28;19942;-69
2022/11/23 01:56:47;;;;;;;2.28;0.93;;;5.60;99.90;;;;;;5039454;28;20505;-69
2022/11/23 01:59:18;;;;;;;3.17;0.90;;;5.60;99.90;;;;;;5037545;28;20033;-70
2022/11/23 02:01:43;;;;;;;1.77;0.80;;;5.60;99.90;;;;;;5045182;28;20127;-70
2022/11/23 02:04:13;;;;;;;1.83;0.90;;;5.60;99.90;;;;;;5047523;28;20108;-70
2022/11/23 02:06:39;;;;;;;4.70;0.82;;;5.60;99.90;;;;;;5052346;28;20049;-69
2022/11/23 02:09:06;;;;;;;4.28;1.00;;;5.60;99.90;;;;;;5045812;28;20041;-70
2022/11/23 02:11:32;;;;;;;2.20;0.80;;;5.70;99.90;;;;;;5046936;28;20397;-70
2022/11/23 02:13:59;;;;;;;0.73;0.47;;;5.60;99.90;;;;;;5060413;28;20044;-69
2022/11/23 02:16:24;;;;;;;4.57;0.82;;;5.60;99.90;;;;;;5052205;28;20094;-69
2022/11/23 02:18:52;;;;;;;2.47;0.90;;;5.60;99.90;;;;;;5049225;28;20032;-69
2022/11/23 02:21:17;;;;;;;1.63;0.65;;;5.60;99.90;;;;;;5052358;28;20049;-68
2022/11/23 02:23:57;;;;;;;1.83;0.68;;;5.70;99.90;;;;;;5053988;28;20037;-69
2022/11/23 02:26:32;;;;;;;2.50;0.82;;;5.70;99.90;;;;;;5046028;28;20097;-69
2022/11/23 02:29:22;;;;;;;0.98;0.60;;;5.60;99.90;;;;;;5050312;28;20033;-68
2022/11/23 02:31:48;;;;;;;3.92;1.00;;;5.70;99.90;;;;;;5055105;28;20037;-68
2022/11/23 02:34:15;;;;;;;3.63;0.93;;;5.70;99.90;;;;;;5055529;28;20673;-69
2022/11/23 02:36:44;;;;;;;3.58;1.10;;;5.70;99.90;;;;;;5052787;28;20080;-69
2022/11/23 02:39:13;;;;;;;2.42;0.73;;;5.70;99.90;;;;;;5051491;28;20047;-69
2022/11/23 02:41:43;;;;;;;3.20;0.90;;;5.70;99.90;;;;;;5057660;28;20044;-70
2022/11/23 02:44:19;;;;;;;4.28;1.10;;;5.70;99.90;;;;;;5052058;28;20036;-71
2022/11/23 02:46:45;;;;;;;1.95;0.80;;;5.70;99.90;;;;;;5051597;28;20048;-70
2022/11/23 02:49:11;;;;;;;3.53;0.80;;;5.70;99.90;;;;;;5052772;28;20074;-69
2022/11/23 02:51:36;;;;;;;2.22;0.98;;;5.70;99.90;;;;;;5052956;28;20613;-69
2022/11/23 02:54:02;;;;;;;4.38;1.45;;;5.70;99.90;;;;;;5050900;28;20032;-70
2022/11/23 02:56:28;;;;;;;1.95;0.90;;;5.70;99.90;;;;;;5057613;28;20723;-69
2022/11/23 02:58:53;;;;;;;2.33;0.85;;;5.70;99.90;;;;;;5058012;28;20041;-71
2022/11/23 03:01:19;;;;;;;;;;;5.70;99.90;;;;;;5054555;28;20043;-70
2022/11/23 03:03:45;;;;;;;4.03;1.70;;;5.70;99.90;;;;;;5055155;28;19928;-69
2022/11/23 03:06:10;;;;;;;;;;;5.80;99.90;;;;;;5051863;28;20045;-70
2022/11/23 03:08:36;;;;;;;4.13;1.08;;;5.80;99.90;;;;;;5051536;28;19917;-70
2022/11/23 03:11:01;;;;;;;1.48;0.90;;;5.70;99.90;;;;;;5046536;28;20037;-71
2022/11/23 03:13:27;;;;;;;1.90;0.63;;;5.70;99.90;;;;;;5059420;28;20052;-69
2022/11/23 03:15:56;;;;;;;3.88;0.80;;;5.80;99.90;;;;;;5057864;28;20102;-70
2022/11/23 03:18:22;;;;;;;2.50;0.68;;;5.80;99.90;;;;;;5052366;28;20582;-70
2022/11/23 03:20:47;;;;;;;1.52;0.73;;;5.80;99.90;;;;;;5047061;28;20114;-69
2022/11/23 03:23:13;;;;;;;6.25;0.70;;;5.80;99.90;;;;;;5052180;28;20064;-70
2022/11/23 03:25:39;;;;;;;5.10;1.13;;;5.80;99.90;;;;;;5053286;28;20041;-70
2022/11/23 03:28:04;;;;;;;4.70;1.23;;;5.80;99.90;;;;;;5054695;28;20036;-70
2022/11/23 03:30:30;;;;;;;;;;;5.80;99.90;;;;;;5052411;28;20132;-69
2022/11/23 03:32:56;;;;;;;2.08;0.82;;;5.80;99.90;;;;;;5052115;28;19955;-69
2022/11/23 03:35:22;;;;;;;0.98;0.70;;;5.80;99.90;;;;;;5060532;28;20041;-70
2022/11/23 03:37:47;;;;;;;2.47;0.90;;;5.80;99.90;;;;;;5058438;28;20496;-69
2022/11/23 03:40:13;;;;;;;1.95;0.70;;;5.80;99.90;;;;;;5050211;28;20436;-70
2022/11/23 03:42:40;;;;;;;1.83;0.63;;;5.70;99.90;;;;;;5052319;28;20048;-70
2022/11/23 03:45:06;;;;;;;3.25;0.90;;;5.70;99.90;;;;;;5049159;28;20052;-71
2022/11/23 03:47:32;;;;;;;7.05;1.33;;;5.70;99.90;;;;;;5051217;28;20143;-70
2022/11/23 03:49:57;;;;;;;4.43;1.15;;;5.70;99.90;;;;;;5052821;28;20132;-70
2022/11/23 03:52:23;;;;;;;4.72;1.00;;;5.70;99.90;;;;;;5052639;28;20607;-69
2022/11/23 03:54:48;;;;;;;;;;;5.70;99.90;;;;;;5056596;28;20052;-69
2022/11/23 03:57:14;;;;;;;2.13;1.08;;;5.70;99.90;;;;;;5060570;28;19920;-69
2022/11/23 03:59:40;;;;;;;;;;;5.70;99.90;;;;;;5064807;28;20107;-68
2022/11/23 04:02:06;;;;;;;5.47;0.85;;;5.70;99.90;;;;;;5040423;28;19917;-69
2022/11/23 04:04:33;;;;;;;6.20;1.10;;;5.70;99.90;;;;;;5034503;28;20073;-70
2022/11/23 04:06:59;;;;;;;3.95;0.77;;;5.70;99.90;;;;;;5034858;28;20045;-70
2022/11/23 04:09:24;;;;;;;7.47;0.82;;;5.70;99.90;;;;;;5035755;28;20049;-69
2022/11/23 04:11:50;;;;;;;7.43;1.10;;;5.70;99.90;;;;;;5036256;28;20033;-70
2022/11/23 04:14:16;;;;;;;;;;;5.70;99.90;;;;;;5035445;28;20033;-70
2022/11/23 04:16:41;;;;;;;2.80;0.93;;;5.70;99.90;;;;;;5043156;28;19967;-69
2022/11/23 04:19:07;;;;;;;;;;;5.70;99.90;;;;;;5042931;28;20037;-69
2022/11/23 04:21:33;;;;;;;5.97;1.48;;;5.70;99.90;;;;;;5038463;28;19921;-70
2022/11/23 04:23:58;;;;;;;3.88;0.88;;;5.70;99.90;;;;;;5038610;28;20033;-68
2022/11/23 04:26:24;;;;;;;3.10;0.88;;;5.70;99.90;;;;;;5037295;28;20136;-69
2022/11/23 04:28:50;;;;;;;2.38;0.95;;;5.60;99.90;;;;;;5037483;28;20124;-70
2022/11/23 04:31:15;;;;;;;3.60;0.90;;;5.60;99.90;;;;;;5040848;28;20044;-70
2022/11/23 04:33:41;;;;;;;;;;;5.50;99.90;;;;;;5038898;28;20120;-69
2022/11/23 04:36:07;;;;;;;6.22;1.50;;;5.50;99.90;;;;;;5042094;28;19978;-71
2022/11/23 04:38:33;;;;;;;3.63;1.02;;;5.60;99.90;;;;;;5038065;28;20048;-69
2022/11/23 04:40:58;;;;;;;4.15;1.33;;;5.60;99.90;;;;;;5039979;28;20041;-71
2022/11/23 04:43:24;;;;;;;2.22;1.00;;;5.60;99.90;;;;;;5038415;28;20037;-70
2022/11/23 04:45:49;;;;;;;3.33;1.13;;;5.60;99.90;;;;;;5037027;28;20043;-68
2022/11/23 04:48:15;;;;;;;5.68;1.38;;;5.60;99.90;;;;;;5042301;28;20048;-68
2022/11/23 04:50:41;;;;;;;5.10;1.30;;;5.60;99.90;;;;;;5035125;28;20044;-69
2022/11/23 04:53:07;;;;;;;;;;;5.60;99.90;;;;;;5039472;28;20038;-70
2022/11/23 04:55:33;;;;;;;3.65;1.20;;;5.70;99.90;;;;;;5037306;28;20357;-70
2022/11/23 04:57:58;;;;;;;7.78;1.33;;;5.70;99.90;;;;;;5033251;28;20061;-69
2022/11/23 05:00:25;;;;;;;7.90;1.40;;;5.70;99.90;;;;;;5031428;28;20076;-70
2022/11/23 05:02:50;;;;;;;6.85;1.35;;;5.70;99.90;;;;;;5053368;28;20056;-70
2022/11/23 05:05:16;;;;;;;4.50;1.08;;;5.70;99.90;;;;;;5056966;28;20074;-71
2022/11/23 05:07:42;;;;;;;;;;;5.70;99.90;;;;;;5054795;28;20648;-71
2022/11/23 05:10:08;;;;;;;3.78;1.00;;;5.60;99.90;;;;;;5047669;28;19917;-69
2022/11/23 05:12:35;;;;;;;7.65;1.50;;;5.60;99.90;;;;;;5055619;28;20041;-68
2022/11/23 05:15:01;;;;;;;6.55;1.38;;;5.70;99.90;;;;;;5052133;28;20279;-70
2022/11/23 05:17:27;;;;;;;6.05;1.23;;;5.70;99.90;;;;;;5053635;28;20044;-70
2022/11/23 05:19:54;;;;;;;3.78;1.23;;;5.70;99.90;;;;;;5055053;28;20055;-70
2022/11/23 05:22:20;;;;;;;3.15;1.15;;;5.70;99.90;;;;;;5064065;28;20492;-70
2022/11/23 05:24:46;;;;;;;4.80;1.92;;;5.70;99.90;;;;;;5059250;28;20090;-68
2022/11/23 05:27:12;;;;;;;5.15;1.83;;;5.70;99.90;;;;;;5053659;28;20086;-68
2022/11/23 05:29:37;;;;;;;3.13;1.17;;;5.60;99.90;;;;;;5053717;28;20085;-70
2022/11/23 05:32:03;;;;;;;6.78;1.17;;;5.70;99.90;;;;;;5055667;28;20093;-70
2022/11/23 05:34:29;;;;;;;;;;;5.70;99.90;;;;;;5054678;28;20037;-70
2022/11/23 05:36:55;;;;;;;3.40;1.05;;;5.70;99.90;;;;;;5054457;28;19998;-69
2022/11/23 05:39:20;;;;;;;5.55;1.08;;;5.70;99.90;;;;;;5051108;28;20599;-71
2022/11/23 05:41:46;;;;;;;2.67;1.00;;;5.60;99.90;;;;;;5050300;28;20062;-69
2022/11/23 05:44:12;;;;;;;;;;;5.70;99.90;;;;;;5050188;28;20032;-70
2022/11/23 05:46:37;;;;;;;3.28;1.02;;;5.70;99.90;;;;;;5051551;28;19931;-67
2022/11/23 05:49:03;;;;;;;3.40;1.10;;;5.70;99.90;;;;;;5054698;28;20447;-70
2022/11/23 05:51:29;;;;;;;;;;;5.70;99.90;;;;;;5051701;28;20033;-70
2022/11/23 05:53:56;;;;;;;2.70;1.00;;;5.70;99.90;;;;;;5061141;28;19920;-70
2022/11/23 05:56:21;;;;;;;4.25;1.02;;;5.70;99.90;;;;;;5061471;28;20101;-69
2022/11/23 05:58:47;;;;;;;2.22;1.00;;;5.70;99.90;;;;;;5061383;28;20048;-69
2022/11/23 06:01:12;;;;;;;;;;;5.60;99.90;;;;;;5055390;28;20040;-70
2022/11/23 06:03:38;;;;;;;5.95;1.23;;;5.60;99.90;;;;;;5056643;28;19916;-70
2022/11/23 06:06:05;;;;;;;3.08;1.17;;;5.60;99.90;;;;;;5057394;28;20037;-68
2022/11/23 06:08:30;;;;;;;4.57;1.48;;;5.50;99.90;;;;;;5043657;28;20044;-71
2022/11/23 06:11:00;;;;;;;3.13;1.35;;;5.50;99.90;;;;;;5054566;28;20448;-72
2022/11/23 06:13:25;;;;;;;3.13;1.20;;;5.50;99.90;;;;;;5047471;28;20072;-72
2022/11/23 06:15:51;;;;;;;4.65;1.35;;;5.50;99.90;;;;;;5060307;28;20063;-70
2022/11/23 06:18:17;;;;;;;4.95;1.45;;;5.40;99.90;;;;;;5045071;28;20476;-67
2022/11/23 06:20:42;;;;;;;4.00;1.58;;;5.40;99.90;;;;;;5053327;28;20111;-71
2022/11/23 06:23:08;;;;;;;6.18;1.98;;;5.40;99.90;;;;;;5064147;28;20060;-70
2022/11/23 06:25:34;;;;;;;4.90;1.30;;;5.40;99.90;;;;;;5057472;28;20044;-69
2022/11/23 06:28:00;;;;;;;;;;;5.40;99.90;;;;;;5052264;28;20032;-67
2022/11/23 06:30:27;;;;;;;3.95;1.52;;;5.40;99.90;;;;;;5054636;28;19955;-68
2022/11/23 06:32:53;;;;;;;3.35;1.38;;;5.50;99.90;;;;;;5059743;28;20040;-65
2022/11/23 06:35:19;;;;;;;9.30;1.60;;;5.50;99.90;;;;;;5056880;28;20044;-72
2022/11/23 06:37:48;;;;;;;6.57;1.10;;;5.50;99.90;;;;;;5052585;28;20067;-68
2022/11/23 06:40:13;;;;;;;5.95;1.60;;;5.60;99.90;;;;;;5046358;28;20043;-69
2022/11/23 06:42:39;;;;;;;2.60;1.20;;;5.50;99.90;;;;;;5048535;28;20292;-71
2022/11/23 06:45:06;;;;;;;5.28;1.33;;;5.50;99.90;;;;;;5052964;28;20585;-69
2022/11/23 06:47:32;;;;;;;3.53;1.40;;;5.50;99.90;;;;;;5048613;28;20123;-68
2022/11/23 06:49:57;;;;;;;5.90;1.40;;;5.50;99.90;;;;;;5062315;28;20119;-71
2022/11/23 06:52:23;;;;;;;5.57;1.63;;;5.60;99.90;;;;;;5053761;28;20131;-69
2022/11/23 06:54:48;;;;;;;5.35;1.15;;;5.60;99.90;;;;;;5056720;28;20136;-69
2022/11/23 06:57:14;;;;;;;3.75;1.40;;;5.60;99.90;;;;;;5050932;28;20044;-71
2022/11/23 06:59:40;;;;;;;7.40;1.48;;;5.60;99.90;;;;;;5045034;28;20045;-69
2022/11/23 07:02:06;;;;;;;4.32;1.25;;;5.70;99.90;;;;;;5050858;28;20064;-70
2022/11/23 07:04:31;;;;;;;4.18;1.50;;;5.70;99.90;;;;;;5047555;28;20040;-70
2022/11/23 07:06:57;;;;;;;;;;;5.70;99.90;;;;;;5047260;28;20459;-71
2022/11/23 07:09:23;;;;;;;5.68;1.35;;;5.70;99.90;;;;;;5051882;28;19917;-71
2022/11/23 07:11:48;;;;;;;3.17;1.60;;;5.70;99.90;;;;;;5046492;28;20037;-72
2022/11/23 07:14:14;;;;;;;;;;;5.80;99.90;;;;;;5053378;28;21106;-69
2022/11/23 07:16:41;;;;;;;3.78;1.08;;;5.80;99.90;;;;;;5053043;28;19916;-71
2022/11/23 07:19:07;;;;;;;3.95;1.20;;;5.80;99.90;;;;;;5059528;28;20178;-70
2022/11/23 07:21:32;;;;;;;1.65;0.93;;;5.80;99.90;;;;;;5054578;28;20155;-69
2022/11/23 07:23:58;;;;;;;5.30;0.98;;;5.80;99.90;;;;;;5043871;28;20048;-71
2022/11/23 07:26:24;;;;;;;4.75;1.17;;;5.90;99.90;;;;;;5052988;28;20041;-69
2022/11/23 07:28:49;;;;;;;5.32;1.02;;;5.90;99.90;;;;;;5058352;28;20094;-68
2022/11/23 07:31:15;;;;;;;2.88;0.75;;;5.90;99.90;;;;;;5059722;28;20065;-70
2022/11/23 07:33:48;;;;;;;2.15;0.90;;;5.90;99.90;;;;;;5055029;28;20124;-70
2022/11/23 07:36:14;;;;;;;4.80;1.05;;;5.90;99.90;;;;;;5056465;28;20040;-68
2022/11/23 07:38:40;;;;;;;2.40;0.90;;;5.90;99.90;;;;;;5047054;28;20037;-69
2022/11/23 07:41:05;;;;;;;5.63;1.88;;;6.00;99.90;;;;;;5061443;28;20044;-71
2022/11/23 07:43:31;;;;;;;3.38;1.00;;;6.00;99.90;;;;;;5060076;28;20041;-70
2022/11/23 07:45:56;;;;;;;;;;;6.00;99.90;;;;;;5050733;28;20037;-68
2022/11/23 07:48:23;;;;;;;5.18;0.90;;;6.00;99.90;;;;;;5056091;28;19916;-69
2022/11/23 07:50:52;;;;;;;4.40;1.05;;;6.00;99.90;;;;;;5051832;28;20043;-69
2022/11/23 07:53:18;;;;;;;2.97;1.52;;;6.00;99.90;;;;;;5055515;28;20039;-70
2022/11/23 07:55:44;;;;;;;3.42;1.15;;;6.10;99.90;;;;;;5053430;28;20037;-70
2022/11/23 07:58:10;;;;;;;3.80;1.13;;;6.10;99.90;;;;;;5057592;28;20025;-70
2022/11/23 08:00:36;;;;;;;4.43;1.80;;;6.10;99.90;;;;;;5058054;28;20056;-69
2022/11/23 08:03:02;;;;;;;5.78;2.50;;;6.10;99.90;;;;;;5053410;28;20044;-70
2022/11/23 08:05:27;;;;;;;;;;;6.10;99.90;;;;;;5057413;28;20052;-70
2022/11/23 08:08:00;;;;;;;15.80;6.85;;;6.20;99.90;;;;;;5055561;28;20050;-69
2022/11/23 08:10:28;;;;;;;9.32;3.95;;;6.20;99.90;;;;;;5063222;28;20132;-69
2022/11/23 08:12:56;;;;;;;12.13;2.72;;;6.20;99.90;;;;;;5055162;28;20049;-70
2022/11/23 08:15:24;;;;;;;8.35;1.50;;;6.10;99.90;;;;;;5061300;28;20037;-70
2022/11/23 08:17:57;;;;;;;6.18;1.50;;;6.20;99.90;;;;;;5055892;28;20037;-69
2022/11/23 08:20:23;;;;;;;5.13;1.90;;;6.20;99.90;;;;;;5053327;28;20427;-70
2022/11/23 08:22:48;;;;;;;6.40;1.90;;;6.10;99.90;;;;;;5057868;28;20429;-69
2022/11/23 08:25:14;;;;;;;9.77;1.75;;;6.10;99.90;;;;;;5053952;28;20108;-69
2022/11/23 08:27:40;;;;;;;4.97;1.50;;;6.10;99.90;;;;;;5053665;28;20614;-70
2022/11/23 08:30:06;;;;;;;;;;;6.10;99.90;;;;;;5056102;28;20135;-69
2022/11/23 08:32:32;;;;;;;6.28;1.40;;;6.20;99.90;;;;;;5058814;28;19996;-69
2022/11/23 08:34:57;;;;;;;5.53;1.70;;;6.20;99.90;;;;;;5057363;28;20040;-68
2022/11/23 08:37:23;;;;;;;4.72;1.40;;;6.20;99.90;;;;;;5063797;28;20044;-69
2022/11/23 08:39:49;;;;;;;;;;;6.30;99.90;;;;;;5053950;28;20378;-69
2022/11/23 08:42:14;;;;;;;2.65;1.20;;;6.30;99.90;;;;;;5053189;28;20416;-72
2022/11/23 08:44:40;;;;;;;8.95;1.40;;;6.20;99.90;;;;;;5059711;28;20071;-70
2022/11/23 08:47:07;;;;;;;6.43;1.58;;;6.20;99.90;;;;;;5048792;28;20041;-70
2022/11/23 08:49:32;;;;;;;4.68;1.63;;;6.20;99.90;;;;;;5049662;28;20060;-71
2022/11/23 08:52:01;;;;;;;8.48;1.52;;;6.30;99.90;;;;;;5057651;28;20037;-71
2022/11/23 08:54:27;;;;;;;5.13;2.08;;;6.30;99.90;;;;;;5056721;28;20047;-70
2022/11/23 08:56:52;;;;;;;3.03;1.45;;;6.30;99.90;;;;;;5054354;28;20048;-69
2022/11/23 08:59:19;;;;;;;;;;;6.30;99.90;;;;;;5051787;28;20059;-70
2022/11/23 09:01:45;;;;;;;7.68;1.50;;;6.30;99.90;;;;;;5055137;28;19924;-71
2022/11/23 09:04:10;;;;;;;9.35;1.70;;;6.40;99.90;;;;;;5067253;28;20047;-71
2022/11/23 09:06:36;;;;;;;5.90;1.73;;;6.50;99.90;;;;;;5058461;28;20037;-69
2022/11/23 09:09:02;;;;;;;11.75;1.92;;;6.60;99.90;;;;;;5059754;28;20048;-68
2022/11/23 09:11:28;;;;;;;;;;;6.70;99.90;;;;;;5055065;28;20041;-68
2022/11/23 09:13:53;;;;;;;6.18;1.77;;;6.70;99.90;;;;;;5047133;28;20292;-70
2022/11/23 09:16:19;;;;;;;9.93;1.65;;;6.70;99.90;;;;;;5049948;28;20631;-69
2022/11/23 09:18:45;;;;;;;9.85;2.10;;;6.80;99.90;;;;;;5055777;28;20086;-69
2022/11/23 09:21:11;;;;;;;;;;;6.80;99.90;;;;;;5065721;28;20485;-71
2022/11/23 09:23:36;;;;;;;11.73;2.53;;;6.80;99.90;;;;;;5058374;28;19923;-71
2022/11/23 09:26:04;;;;;;;7.95;2.13;;;6.80;99.90;;;;;;5054913;28;20175;-71
2022/11/23 09:28:30;;;;;;;6.00;1.50;;;6.80;99.90;;;;;;5046729;28;20049;-69
2022/11/23 09:30:56;;;;;;;13.95;1.98;;;6.80;99.90;;;;;;5053790;28;20032;-72
2022/11/23 09:33:23;;;;;;;8.38;1.95;;;6.80;99.90;;;;;;5044109;28;20095;-70
2022/11/23 09:36:00;;;;;;;8.60;1.95;;;6.80;99.90;;;;;;5054902;28;20506;-72
2022/11/23 09:38:29;;;;;;;8.32;2.00;;;6.90;99.90;;;;;;5055759;28;20063;-73
2022/11/23 09:41:19;;;;;;;6.60;1.55;;;7.00;99.90;;;;;;5049561;28;20033;-73
2022/11/23 09:44:03;;;;;;;10.02;2.05;;;7.10;99.90;;;;;;5051169;28;20043;-71
2022/11/23 09:46:38;;;;;;;6.78;1.63;;;7.20;99.90;;;;;;5053984;28;20095;-71
2022/11/23 09:49:21;;;;;;;11.45;2.28;;;7.20;99.90;;;;;;5045183;28;20075;-72
2022/11/23 09:51:49;;;;;;;14.95;2.53;;;7.30;99.90;;;;;;5055456;28;20051;-74
2022/11/23 09:54:26;;;;;;;6.97;2.00;;;7.50;99.90;;;;;;5062284;28;20094;-72
2022/11/23 09:56:54;;;;;;;11.48;1.90;;;7.60;99.90;;;;;;5049093;28;20043;-72
2022/11/23 09:59:29;;;;;;;8.85;2.25;;;7.60;99.90;;;;;;5046059;28;20036;-71
2022/11/23 10:01:56;;;;;;;10.93;1.80;;;7.70;99.90;;;;;;5046735;28;20098;-72
2022/11/23 10:04:23;;;;;;;9.45;1.95;;;7.60;99.90;;;;;;5058350;28;20143;-72
2022/11/23 10:07:01;;;;;;;10.90;1.95;;;7.60;99.90;;;;;;5045761;28;20045;-69
2022/11/23 10:09:42;;;;;;;11.73;2.55;;;7.60;99.90;;;;;;5044889;28;20041;-72
2022/11/23 10:12:31;;;;;;;6.90;1.58;;;7.80;99.90;;;;;;5050377;28;20039;-73
2022/11/23 10:15:18;;;;;;;11.48;1.95;;;7.80;99.90;;;;;;5038968;28;20040;-72
2022/11/23 10:17:48;;;;;;;15.10;1.95;;;8.00;99.90;;;;;;5057461;28;20055;-74
2022/11/23 10:20:54;;;;;;;10.60;2.35;;;8.10;99.90;;;;;;5055900;28;20122;-74
2022/11/23 10:23:43;;;;;;;7.03;1.98;;;8.30;99.90;;;;;;5055471;28;20071;-72
2022/11/23 10:26:15;;;;;;;12.13;2.03;;;8.30;99.90;;;;;;5051242;28;20408;-74
2022/11/23 10:28:41;;;;;;;11.65;2.38;;;8.20;99.90;;;;;;5050936;28;20045;-76
2022/11/23 10:31:16;;;;;;;14.52;2.22;;;8.40;99.90;;;;;;5057995;28;20036;-75
2022/11/23 10:33:50;;;;;;;11.20;2.42;;;8.60;99.90;;;;;;5054592;28;20128;-71
2022/11/23 10:36:16;;;;;;;8.25;1.80;;;8.70;99.90;;;;;;5045495;28;20036;-74
2022/11/23 10:38:42;;;;;;;;;;;8.80;99.90;;;;;;5053333;28;20029;-74
2022/11/23 10:41:12;;;;;;;9.50;2.17;;;8.90;99.90;;;;;;5048177;28;19967;-76
2022/11/23 10:43:57;;;;;;;15.43;2.78;;;8.90;99.90;;;;;;5052775;28;20120;-72
2022/11/23 10:46:23;;;;;;;7.65;2.03;;;8.70;99.90;;;;;;5053945;28;20056;-73
2022/11/23 10:48:50;;;;;;;;;;;8.70;99.90;;;;;;5054709;28;20041;-66
2022/11/23 10:51:29;;;;;;;5.32;1.70;;;8.70;99.90;;;;;;5048081;28;21106;-71
2022/11/23 10:54:00;;;;;;;9.73;1.60;;;8.70;99.90;;;;;;5049489;28;20045;-73
2022/11/23 10:56:27;;;;;;;13.48;2.63;;;8.60;99.90;;;;;;5052986;28;20123;-74
2022/11/23 10:58:53;;;;;;;15.57;2.53;;;8.70;99.90;;;;;;5044350;28;20123;-71
2022/11/23 11:01:23;;;;;;;13.85;3.08;;;8.70;99.90;;;;;;5056473;28;20396;-72
2022/11/23 11:03:51;;;;;;;10.50;2.05;;;8.50;99.90;;;;;;5049630;28;20052;-73
2022/11/23 11:06:26;;;;;;;13.52;2.20;;;8.50;99.90;;;;;;5048796;28;20048;-73
2022/11/23 11:08:57;;;;;;;14.75;2.75;;;8.50;99.90;;;;;;5050661;28;20037;-71
2022/11/23 11:11:24;;;;;;;10.00;2.50;;;8.60;99.90;;;;;;5050250;28;20037;-71
2022/11/23 11:13:50;;;;;;;17.52;2.28;;;8.60;99.90;;;;;;5043460;28;20527;-71
2022/11/23 11:16:25;;;;;;;;;;;8.40;99.90;;;;;;5052064;28;20036;-69
2022/11/23 11:18:51;;;;;;;19.48;3.42;;;8.40;99.90;;;;;;5051836;28;20636;-72
2022/11/23 11:21:23;;;;;;;12.75;2.10;;;8.30;99.90;;;;;;5050652;28;20068;-72
2022/11/23 11:23:58;;;;;;;15.55;2.95;;;8.30;99.90;;;;;;5059990;28;20048;-72
2022/11/23 11:26:26;;;;;;;16.40;2.80;;;8.20;99.90;;;;;;5044522;28;20045;-74
2022/11/23 11:28:55;;;;;;;16.35;2.55;;;8.20;99.90;;;;;;5052287;28;20041;-71
2022/11/23 11:32:03;;;;;;;7.95;2.60;;;8.20;99.90;;;;;;5044486;28;20040;-71
2022/11/23 11:34:31;;;;;;;11.63;2.40;;;8.20;99.90;;;;;;5014963;28;20627;-72
2022/11/23 11:37:09;;;;;;;20.23;3.72;;;8.30;99.90;;;;;;5018115;28;20136;-70
2022/11/23 11:39:49;;;;;;;8.90;2.67;;;8.30;99.90;;;;;;5040275;28;20132;-70
2022/11/23 11:42:47;;;;;;;8.73;2.42;;;8.20;99.90;;;;;;5053876;28;20601;-71
2022/11/23 11:45:23;;;;;;;10.88;2.45;;;7.90;99.90;;;;;;5042122;28;20041;-72
2022/11/23 11:47:55;;;;;;;;;;;7.80;99.90;;;;;;5047550;28;20068;-72
2022/11/23 11:50:35;;;;;;;18.25;3.67;;;7.70;99.90;;;;;;5055467;28;19952;-71
2022/11/23 11:53:13;;;;;;;15.45;2.67;;;7.60;99.90;;;;;;5053962;28;20143;-73
2022/11/23 11:55:59;;;;;;;13.45;2.67;;;7.60;99.90;;;;;;5047895;28;20033;-70
2022/11/23 11:58:25;;;;;;;11.63;1.93;;;7.60;99.90;;;;;;5054854;28;20497;-70
2022/11/23 12:01:02;;;;;;;;;;;7.70;99.90;;;;;;5048127;28;20041;-70
2022/11/23 12:03:42;;;;;;;14.52;2.28;;;7.80;99.90;;;;;;5043798;28;20299;-70
2022/11/23 12:06:17;;;;;;;14.73;2.70;;;7.80;99.90;;;;;;5051887;28;20178;-70
2022/11/23 12:09:05;;;;;;;14.13;2.40;;;7.90;99.90;;;;;;5047668;28;20041;-71
2022/11/23 12:11:31;;;;;;;10.80;2.83;;;7.90;99.90;;;;;;5053797;28;20045;-70
2022/11/23 12:14:03;;;;;;;13.55;2.42;;;7.90;99.90;;;;;;5054111;28;20421;-71
2022/11/23 12:16:42;;;;;;;10.45;2.72;;;7.80;99.90;;;;;;5057473;28;20048;-71
2022/11/23 12:19:30;;;;;;;10.38;2.33;;;7.80;99.90;;;;;;5051986;28;20045;-69
2022/11/23 12:22:32;;;;;;;14.88;2.15;;;7.80;99.90;;;;;;5057990;28;20042;-70
2022/11/23 12:25:16;;;;;;;10.98;2.85;;;7.70;99.90;;;;;;5051406;28;20037;-73
2022/11/23 12:27:58;;;;;;;15.80;2.65;;;7.70;99.90;;;;;;5055628;28;20041;-71
2022/11/23 12:30:54;;;;;;;13.93;2.20;;;7.70;99.90;;;;;;5055373;28;20071;-68
2022/11/23 12:33:23;;;;;;;7.13;2.03;;;7.70;99.90;;;;;;5050364;28;20040;-71
2022/11/23 12:36:19;;;;;;;16.10;2.17;;;7.60;99.90;;;;;;5056270;28;20053;-71
2022/11/23 12:39:06;;;;;;;15.00;1.83;;;7.50;99.90;;;;;;5061518;28;20063;-72
2022/11/23 12:41:55;;;;;;;12.63;2.70;;;7.40;99.90;;;;;;5054574;28;20468;-70
2022/11/23 12:44:53;;;;;;;13.30;2.17;;;7.40;99.90;;;;;;5051116;28;20036;-70
2022/11/23 12:47:24;;;;;;;16.35;2.40;;;7.30;99.90;;;;;;5044244;28;20061;-70
2022/11/23 12:50:09;;;;;;;8.25;2.45;;;7.30;99.90;;;;;;5051508;28;20040;-71
2022/11/23 12:52:59;;;;;;;17.58;2.42;;;7.30;99.90;;;;;;5056230;28;20025;-70
2022/11/23 12:55:37;;;;;;;13.32;2.00;;;7.20;99.90;;;;;;5048713;28;20072;-71
2022/11/23 12:58:25;;;;;;;10.35;1.65;;;7.20;99.90;;;;;;5050986;28;20067;-70
2022/11/23 13:01:08;;;;;;;11.30;2.35;;;7.20;99.90;;;;;;5051252;28;20041;-70
2022/11/23 13:04:27;;;;;;;10.32;2.22;;;7.10;99.90;;;;;;5056808;28;20041;-70
2022/11/23 13:07:26;;;;;;;10.35;1.95;;;7.00;99.90;;;;;;5050200;28;20051;-70
2022/11/23 13:10:20;;;;;;;11.63;2.75;;;6.90;99.90;;;;;;5058470;28;20781;-71
2022/11/23 13:13:01;;;;;;;12.93;1.88;;;6.90;99.90;;;;;;5057157;28;20086;-71
2022/11/23 13:16:04;;;;;;;8.88;1.75;;;6.80;99.90;;;;;;5053454;28;20041;-70